createdAt,value
2019-01-26T00:01:41.121Z,28.83
2019-01-26T00:04:10.311Z,29.70
2019-01-26T00:06:39.589Z,30.77
2019-01-26T00:09:10.336Z,32.98
2019-01-26T00:11:39.544Z,32.23
2019-01-26T00:14:08.720Z,34.58
2019-01-26T00:16:37.874Z,27.70
2019-01-26T00:19:07.151Z,31.50
2019-01-26T00:21:36.337Z,33.48
2019-01-26T00:24:05.816Z,38.33
2019-01-26T00:26:36.450Z,32.90
2019-01-26T00:29:05.783Z,33.75
2019-01-26T00:31:34.904Z,33.25
2019-01-26T00:34:04.111Z,36.33
2019-01-26T00:36:33.300Z,33.88
2019-01-26T00:39:02.431Z,36.75
2019-01-26T00:41:31.620Z,32.10
2019-01-26T00:44:00.800Z,35.83
2019-01-26T00:46:29.984Z,30.15
2019-01-26T00:48:59.104Z,38.78
2019-01-26T00:51:28.221Z,35.63
2019-01-26T00:53:57.492Z,35.63
2019-01-26T00:56:26.604Z,37.03
2019-01-26T00:58:55.832Z,32.63
2019-01-26T01:01:25.384Z,35.25
2019-01-26T01:03:54.581Z,37.50
2019-01-26T01:06:26.000Z,28.65
2019-01-26T01:08:54.745Z,28.98
2019-01-26T01:11:23.931Z,35.23
2019-01-26T01:13:53.109Z,33.90
2019-01-26T01:16:22.321Z,29.52
2019-01-26T01:18:51.530Z,33.50
2019-01-26T01:21:20.777Z,29.27
2019-01-26T01:23:50.115Z,30.70
2019-01-26T01:26:19.389Z,30.75
2019-01-26T01:28:48.572Z,30.37
2019-01-26T01:31:17.774Z,32.65
2019-01-26T01:33:46.970Z,39.63
2019-01-26T01:36:16.179Z,29.75
2019-01-26T01:38:45.284Z,30.95
2019-01-26T01:41:14.532Z,36.45
2019-01-26T01:43:43.651Z,30.08
2019-01-26T01:46:12.765Z,28.00
2019-01-26T01:48:41.884Z,29.87
2019-01-26T01:51:11.112Z,31.73
2019-01-26T01:53:40.283Z,29.15
2019-01-26T01:56:10.226Z,26.77
2019-01-26T01:58:39.421Z,32.58
2019-01-26T02:01:08.581Z,32.48
2019-01-26T02:03:37.694Z,27.98
2019-01-26T02:06:06.867Z,27.05
2019-01-26T02:08:36.044Z,26.70
2019-01-26T02:11:05.214Z,26.23
2019-01-26T02:13:34.368Z,35.15
2019-01-26T02:16:04.717Z,29.75
2019-01-26T02:18:33.836Z,29.90
2019-01-26T02:21:04.705Z,27.82
2019-01-26T02:23:33.876Z,25.50
2019-01-26T02:26:03.129Z,32.65
2019-01-26T02:28:32.400Z,30.20
2019-01-26T02:31:01.703Z,25.88
2019-01-26T02:33:30.888Z,30.70
2019-01-26T02:35:59.993Z,32.78
2019-01-26T02:38:29.194Z,27.93
2019-01-26T02:40:58.486Z,29.37
2019-01-26T02:43:27.674Z,32.10
2019-01-26T02:45:56.776Z,26.07
2019-01-26T02:48:25.899Z,30.77
2019-01-26T02:50:55.084Z,33.28
2019-01-26T02:53:24.245Z,33.95
2019-01-26T02:55:53.411Z,26.05
2019-01-26T02:58:22.527Z,26.62
2019-01-26T03:00:51.739Z,28.05
2019-01-26T03:03:20.918Z,29.90
2019-01-26T03:05:50.532Z,28.73
2019-01-26T03:08:19.737Z,33.10
2019-01-26T03:10:48.916Z,29.72
2019-01-26T03:13:18.137Z,30.97
2019-01-26T03:15:47.331Z,26.82
2019-01-26T03:18:16.656Z,34.25
2019-01-26T03:20:45.959Z,28.30
2019-01-26T03:23:17.247Z,32.30
2019-01-26T03:25:46.380Z,30.55
2019-01-26T03:28:15.633Z,32.85
2019-01-26T03:30:44.874Z,33.15
2019-01-26T03:33:14.070Z,35.88
2019-01-26T03:35:43.291Z,29.98
2019-01-26T03:38:12.476Z,38.63
2019-01-26T03:40:41.640Z,42.00
2019-01-26T03:43:10.877Z,36.80
2019-01-26T03:45:40.154Z,32.25
2019-01-26T03:48:09.461Z,36.80
2019-01-26T03:50:38.644Z,38.28
2019-01-26T03:53:07.871Z,33.65
2019-01-26T03:55:37.143Z,35.35
2019-01-26T03:58:06.478Z,32.30
2019-01-26T04:00:35.672Z,36.85
2019-01-26T04:03:05.114Z,31.85
2019-01-26T04:05:34.313Z,33.33
2019-01-26T04:08:03.559Z,37.30
2019-01-26T04:10:32.762Z,36.70
2019-01-26T04:13:01.886Z,32.40
2019-01-26T04:15:31.088Z,35.83
2019-01-26T04:18:00.187Z,36.50
2019-01-26T04:20:29.489Z,36.20
2019-01-26T04:22:58.722Z,29.65
2019-01-26T04:25:27.928Z,41.15
2019-01-26T04:27:57.050Z,38.20
2019-01-26T04:30:26.316Z,41.15
2019-01-26T04:32:55.398Z,37.90
2019-01-26T04:35:24.674Z,39.55
2019-01-26T04:37:53.841Z,36.35
2019-01-26T04:40:22.998Z,65.20
2019-01-26T04:42:52.283Z,38.40
2019-01-26T04:45:23.312Z,42.65
2019-01-26T04:47:52.472Z,41.75
2019-01-26T04:50:21.800Z,40.03
2019-01-26T04:52:50.952Z,44.23
2019-01-26T04:55:20.701Z,44.73
2019-01-26T04:57:49.961Z,42.48
2019-01-26T05:00:24.544Z,43.28
2019-01-26T05:02:53.792Z,41.63
2019-01-26T05:05:22.982Z,38.67
2019-01-26T05:07:52.221Z,38.95
2019-01-26T05:10:21.538Z,46.10
2019-01-26T05:12:50.809Z,42.75
2019-01-26T05:15:20.188Z,44.10
2019-01-26T05:17:49.443Z,34.83
2019-01-26T05:20:25.632Z,34.83
2019-01-26T05:22:54.801Z,35.83
2019-01-26T05:25:24.009Z,40.92
2019-01-26T05:27:53.333Z,36.65
2019-01-26T05:30:24.767Z,38.90
2019-01-26T05:32:53.865Z,32.60
2019-01-26T05:35:23.132Z,30.43
2019-01-26T05:37:52.303Z,27.07
2019-01-26T05:40:21.432Z,15.63
2019-01-26T05:42:50.601Z,18.02
2019-01-26T05:45:21.262Z,14.15
2019-01-26T05:47:50.623Z,16.02
2019-01-26T05:50:21.984Z,14.28
2019-01-26T05:52:51.332Z,11.97
2019-01-26T05:55:20.464Z,13.28
2019-01-26T05:57:49.660Z,11.78
2019-01-26T06:00:25.408Z,14.53
2019-01-26T06:02:54.605Z,10.25
2019-01-26T06:05:23.946Z,11.95
2019-01-26T06:07:53.180Z,11.22
2019-01-26T06:10:22.369Z,12.20
2019-01-26T06:12:51.612Z,11.10
2019-01-26T06:15:20.876Z,11.48
2019-01-26T06:17:54.992Z,9.08
2019-01-26T06:20:20.995Z,10.65
2019-01-26T06:22:50.175Z,11.85
2019-01-26T06:25:19.812Z,9.50
2019-01-26T06:27:49.277Z,10.10
2019-01-26T06:30:20.689Z,9.50
2019-01-26T06:32:49.870Z,11.22
2019-01-26T06:35:19.113Z,9.25
2019-01-26T06:37:48.357Z,11.30
2019-01-26T06:40:18.344Z,11.53
2019-01-26T06:42:47.572Z,8.60
2019-01-26T06:45:18.182Z,9.48
2019-01-26T06:47:47.518Z,9.90
2019-01-26T06:50:21.475Z,13.90
2019-01-26T06:52:50.644Z,7.92
2019-01-26T06:55:19.971Z,8.38
2019-01-26T06:57:49.201Z,7.67
2019-01-26T07:00:20.730Z,7.53
2019-01-26T07:02:49.959Z,8.53
2019-01-26T07:05:56.832Z,8.40
2019-01-26T07:08:25.980Z,7.85
2019-01-26T07:10:55.093Z,8.25
2019-01-26T07:13:24.311Z,7.10
2019-01-26T07:15:55.221Z,7.85
2019-01-26T07:18:24.309Z,10.98
2019-01-26T07:20:53.568Z,8.08
2019-01-26T07:23:22.740Z,6.00
2019-01-26T07:25:52.425Z,7.72
2019-01-26T07:28:21.574Z,7.58
2019-01-26T07:30:50.777Z,6.15
2019-01-26T07:33:19.953Z,7.22
2019-01-26T07:35:49.115Z,6.42
2019-01-26T07:38:18.197Z,6.37
2019-01-26T07:40:47.283Z,6.62
2019-01-26T07:43:16.428Z,7.22
2019-01-26T07:45:45.707Z,6.42
2019-01-26T07:48:16.836Z,7.65
2019-01-26T07:50:45.747Z,5.92
2019-01-26T07:53:14.923Z,7.12
2019-01-26T07:55:44.035Z,6.30
2019-01-26T07:58:13.132Z,6.25
2019-01-26T08:00:42.300Z,5.40
2019-01-26T08:03:11.467Z,5.30
2019-01-26T08:05:40.702Z,6.17
2019-01-26T08:08:09.927Z,8.18
2019-01-26T08:10:39.071Z,6.50
2019-01-26T08:13:08.313Z,5.17
2019-01-26T08:15:38.441Z,5.10
2019-01-26T08:18:09.035Z,4.35
2019-01-26T08:20:38.352Z,6.42
2019-01-26T08:23:08.747Z,6.37
2019-01-26T08:25:37.863Z,5.45
2019-01-26T08:28:07.029Z,5.40
2019-01-26T08:30:36.229Z,6.05
2019-01-26T08:33:05.430Z,5.45
2019-01-26T08:35:34.787Z,4.67
2019-01-26T08:38:04.158Z,4.53
2019-01-26T08:40:33.244Z,5.47
2019-01-26T08:43:02.399Z,4.62
2019-01-26T08:45:31.501Z,5.22
2019-01-26T08:48:00.673Z,5.72
2019-01-26T08:50:29.912Z,4.00
2019-01-26T08:52:58.989Z,3.98
2019-01-26T08:55:28.290Z,6.85
2019-01-26T08:57:57.589Z,8.53
2019-01-26T09:00:28.032Z,4.58
2019-01-26T09:03:16.458Z,5.22
2019-01-26T09:06:16.997Z,4.20
2019-01-26T09:08:46.181Z,4.35
2019-01-26T09:11:15.445Z,4.75
2019-01-26T09:13:44.686Z,5.58
2019-01-26T09:16:13.894Z,3.95
2019-01-26T09:18:43.227Z,6.28
2019-01-26T09:21:12.408Z,5.25
2019-01-26T09:23:41.665Z,4.22
2019-01-26T09:26:10.850Z,3.90
2019-01-26T09:28:40.010Z,3.90
2019-01-26T09:31:09.125Z,4.45
2019-01-26T09:33:38.329Z,3.70
2019-01-26T09:36:07.514Z,4.30
2019-01-26T09:38:36.696Z,4.50
2019-01-26T09:41:06.037Z,3.98
2019-01-26T09:43:35.120Z,3.95
2019-01-26T09:46:04.759Z,3.55
2019-01-26T09:48:33.979Z,3.70
2019-01-26T09:51:03.420Z,3.87
2019-01-26T09:53:32.632Z,3.52
2019-01-26T09:56:01.789Z,4.08
2019-01-26T09:58:31.123Z,5.15
2019-01-26T10:01:00.226Z,3.92
2019-01-26T10:03:29.347Z,4.20
2019-01-26T10:05:58.518Z,3.70
2019-01-26T10:08:27.681Z,4.85
2019-01-26T10:10:56.793Z,4.15
2019-01-26T10:13:25.961Z,4.47
2019-01-26T10:15:55.168Z,4.87
2019-01-26T10:18:24.393Z,5.78
2019-01-26T10:20:53.555Z,7.37
2019-01-26T10:23:22.942Z,4.80
2019-01-26T10:25:52.288Z,5.62
2019-01-26T10:28:21.463Z,5.05
2019-01-26T10:30:57.183Z,6.53
2019-01-26T10:33:26.370Z,5.92
2019-01-26T10:36:14.639Z,5.50
2019-01-26T10:38:48.965Z,6.00
2019-01-26T10:41:35.932Z,6.45
2019-01-26T10:44:05.488Z,5.65
2019-01-26T10:46:34.639Z,5.50
2019-01-26T10:49:03.957Z,4.97
2019-01-26T10:51:33.077Z,5.50
2019-01-26T10:54:02.165Z,6.55
2019-01-26T10:56:31.344Z,6.47
2019-01-26T10:59:00.504Z,5.92
2019-01-26T11:01:29.895Z,6.05
2019-01-26T11:03:59.304Z,5.40
2019-01-26T11:06:28.488Z,5.85
2019-01-26T11:08:57.589Z,6.05
2019-01-26T11:11:26.826Z,4.75
2019-01-26T11:13:55.925Z,4.85
2019-01-26T11:16:24.996Z,3.98
2019-01-26T11:18:54.181Z,5.58
2019-01-26T11:21:23.404Z,5.20
2019-01-26T11:23:52.533Z,8.20
2019-01-26T11:26:21.636Z,10.63
2019-01-26T11:28:50.785Z,5.35
2019-01-26T11:31:20.084Z,5.22
2019-01-26T11:33:49.247Z,4.20
2019-01-26T11:36:18.510Z,5.22
2019-01-26T11:38:47.741Z,4.00
2019-01-26T11:41:16.975Z,4.30
2019-01-26T11:43:47.413Z,4.58
2019-01-26T11:46:25.353Z,4.55
2019-01-26T11:48:56.044Z,4.75
2019-01-26T11:51:56.646Z,5.45
2019-01-26T11:54:28.783Z,3.85
2019-01-26T11:57:05.681Z,4.53
2019-01-26T11:59:34.767Z,4.03
2019-01-26T12:02:11.355Z,5.47
2019-01-26T12:04:46.971Z,5.58
2019-01-26T12:07:18.895Z,5.40
2019-01-26T12:09:48.088Z,7.00
2019-01-26T12:12:17.245Z,4.60
2019-01-26T12:14:47.485Z,4.37
2019-01-26T12:17:16.777Z,4.92
2019-01-26T12:19:45.960Z,5.17
2019-01-26T12:22:15.074Z,5.10
2019-01-26T12:24:44.491Z,4.20
2019-01-26T12:27:26.920Z,4.97
2019-01-26T12:29:56.216Z,11.00
2019-01-26T12:32:25.337Z,4.37
2019-01-26T12:34:54.507Z,12.78
2019-01-26T12:37:23.627Z,5.40
2019-01-26T12:39:52.874Z,5.55
2019-01-26T12:42:22.105Z,4.60
2019-01-26T12:44:51.385Z,4.17
2019-01-26T12:47:20.515Z,4.15
2019-01-26T12:49:49.689Z,7.00
2019-01-26T12:52:18.867Z,6.10
2019-01-26T12:54:47.969Z,5.37
2019-01-26T12:57:17.124Z,5.37
2019-01-26T12:59:46.257Z,6.30
2019-01-26T13:02:15.487Z,6.97
2019-01-26T13:04:46.932Z,5.40
2019-01-26T13:07:16.053Z,5.22
2019-01-26T13:09:45.659Z,4.50
2019-01-26T13:12:15.071Z,4.97
2019-01-26T13:14:44.254Z,5.85
2019-01-26T13:17:14.800Z,9.60
2019-01-26T13:19:43.884Z,5.50
2019-01-26T13:22:13.059Z,5.60
2019-01-26T13:24:42.187Z,6.45
2019-01-26T13:27:13.473Z,5.58
2019-01-26T13:29:42.702Z,5.50
2019-01-26T13:32:12.254Z,8.53
2019-01-26T13:34:41.437Z,6.45
2019-01-26T13:37:10.782Z,7.05
2019-01-26T13:39:39.956Z,6.85
2019-01-26T13:42:09.079Z,8.70
2019-01-26T13:44:38.423Z,6.12
2019-01-26T13:47:07.628Z,6.47
2019-01-26T13:49:36.757Z,9.83
2019-01-26T13:52:07.520Z,5.28
2019-01-26T13:54:37.967Z,10.48
2019-01-26T13:57:07.189Z,8.10
2019-01-26T13:59:36.493Z,6.28
2019-01-26T14:02:05.811Z,9.13
2019-01-26T14:04:35.066Z,5.95
2019-01-26T14:07:04.289Z,5.05
2019-01-26T14:09:33.389Z,6.55
2019-01-26T14:12:02.549Z,10.03
2019-01-26T14:14:31.841Z,6.03
2019-01-26T14:17:01.103Z,15.80
2019-01-26T14:19:30.277Z,6.50
2019-01-26T14:21:59.474Z,6.37
2019-01-26T14:24:28.575Z,8.63
2019-01-26T14:26:57.823Z,5.08
2019-01-26T14:29:27.098Z,5.45
2019-01-26T14:31:56.270Z,5.47
2019-01-26T14:34:25.438Z,4.15
2019-01-26T14:36:54.617Z,4.78
2019-01-26T14:39:23.755Z,5.40
2019-01-26T14:41:52.899Z,5.33
2019-01-26T14:44:22.064Z,5.70
2019-01-26T14:46:51.185Z,4.15
2019-01-26T14:49:20.286Z,8.73
2019-01-26T14:51:49.489Z,6.42
2019-01-26T14:54:18.670Z,12.18
2019-01-26T14:56:47.864Z,4.65
2019-01-26T14:59:16.999Z,7.03
2019-01-26T15:01:46.248Z,6.55
2019-01-26T15:04:15.464Z,8.75
2019-01-26T15:06:44.560Z,6.83
2019-01-26T15:09:13.731Z,5.10
2019-01-26T15:11:42.960Z,5.03
2019-01-26T15:14:12.157Z,6.22
2019-01-26T15:16:41.250Z,7.70
2019-01-26T15:19:10.357Z,4.50
2019-01-26T15:21:39.508Z,5.10
2019-01-26T15:24:08.678Z,4.25
2019-01-26T15:26:37.800Z,6.08
2019-01-26T15:29:06.939Z,4.58
2019-01-26T15:31:36.053Z,6.62
2019-01-26T15:34:05.242Z,5.08
2019-01-26T15:36:34.363Z,5.20
2019-01-26T15:39:05.272Z,8.35
2019-01-26T15:41:34.395Z,4.80
2019-01-26T15:44:03.561Z,4.50
2019-01-26T15:46:32.780Z,4.85
2019-01-26T15:49:01.882Z,5.03
2019-01-26T15:51:31.049Z,5.60
2019-01-26T15:54:00.220Z,4.15
2019-01-26T15:56:29.425Z,4.15
2019-01-26T15:58:58.556Z,4.78
2019-01-26T16:01:27.675Z,4.45
2019-01-26T16:03:56.830Z,4.83
2019-01-26T16:06:26.132Z,4.87
2019-01-26T16:08:55.345Z,7.22
2019-01-26T16:11:24.751Z,4.55
2019-01-26T16:13:53.933Z,6.90
2019-01-26T16:16:23.013Z,4.50
2019-01-26T16:18:52.226Z,5.08
2019-01-26T16:21:21.386Z,4.05
2019-01-26T16:23:50.460Z,5.75
2019-01-26T16:26:19.667Z,5.30
2019-01-26T16:28:48.758Z,8.20
2019-01-26T16:31:17.932Z,4.53
2019-01-26T16:33:48.216Z,5.70
2019-01-26T16:36:17.408Z,5.25
2019-01-26T16:38:46.507Z,4.45
2019-01-26T16:41:15.637Z,4.08
2019-01-26T16:43:44.811Z,5.10
2019-01-26T16:46:14.078Z,4.80
2019-01-26T16:48:44.645Z,7.78
2019-01-26T16:51:13.886Z,5.20
2019-01-26T16:53:44.379Z,4.55
2019-01-26T16:56:13.613Z,5.90
2019-01-26T16:58:42.730Z,4.70
2019-01-26T17:01:11.901Z,6.70
2019-01-26T17:03:42.183Z,6.08
2019-01-26T17:06:11.310Z,5.55
2019-01-26T17:08:40.536Z,4.83
2019-01-26T17:11:09.684Z,3.90
2019-01-26T17:13:39.118Z,5.90
2019-01-26T17:16:08.320Z,5.45
2019-01-26T17:18:37.565Z,4.00
2019-01-26T17:21:06.824Z,3.98
2019-01-26T17:23:36.022Z,4.47
2019-01-26T17:26:05.387Z,4.85
2019-01-26T17:28:34.566Z,4.58
2019-01-26T17:31:03.752Z,4.28
2019-01-26T17:33:32.948Z,6.90
2019-01-26T17:36:02.132Z,4.25
2019-01-26T17:38:31.247Z,5.00
2019-01-26T17:41:00.500Z,5.72
2019-01-26T17:43:30.848Z,4.42
2019-01-26T17:46:00.055Z,5.55
2019-01-26T17:48:29.171Z,4.55
2019-01-26T17:50:58.366Z,5.20
2019-01-26T17:53:30.635Z,6.55
2019-01-26T17:55:59.843Z,5.37
2019-01-26T17:58:29.031Z,5.83
2019-01-26T18:00:59.360Z,4.37
2019-01-26T18:03:28.913Z,6.28
2019-01-26T18:05:58.096Z,5.10
2019-01-26T18:08:27.179Z,5.22
2019-01-26T18:10:56.444Z,4.62
2019-01-26T18:13:25.563Z,4.70
2019-01-26T18:15:54.699Z,4.35
2019-01-26T18:18:23.981Z,4.47
2019-01-26T18:20:53.365Z,4.45
2019-01-26T18:23:33.721Z,6.03
2019-01-26T18:26:03.178Z,4.65
2019-01-26T18:28:33.512Z,4.05
2019-01-26T18:31:04.059Z,4.62
2019-01-26T18:33:33.234Z,5.55
2019-01-26T18:36:02.629Z,5.35
2019-01-26T18:38:31.757Z,4.55
2019-01-26T18:41:00.902Z,4.40
2019-01-26T18:43:30.064Z,4.50
2019-01-26T18:45:59.238Z,4.70
2019-01-26T18:48:28.491Z,5.25
2019-01-26T18:50:57.737Z,4.53
2019-01-26T18:53:26.992Z,5.72
2019-01-26T18:55:56.102Z,4.50
2019-01-26T18:58:25.313Z,6.15
2019-01-26T19:00:54.473Z,4.65
2019-01-26T19:03:34.200Z,4.92
2019-01-26T19:06:03.580Z,5.55
2019-01-26T19:08:32.724Z,4.50
2019-01-26T19:11:01.997Z,5.47
2019-01-26T19:13:31.311Z,4.65
2019-01-26T19:16:00.529Z,4.90
2019-01-26T19:18:29.672Z,5.42
2019-01-26T19:21:03.025Z,4.25
2019-01-26T19:23:29.827Z,4.58
2019-01-26T19:25:59.067Z,4.30
2019-01-26T19:28:28.243Z,5.45
2019-01-26T19:30:57.570Z,5.30
2019-01-26T19:33:26.819Z,4.87
2019-01-26T19:35:56.021Z,4.70
2019-01-26T19:38:25.291Z,5.87
2019-01-26T19:40:54.478Z,5.50
2019-01-26T19:43:23.649Z,5.12
2019-01-26T19:45:57.750Z,4.83
2019-01-26T19:48:27.072Z,5.10
2019-01-26T19:50:56.175Z,5.42
2019-01-26T19:53:25.462Z,5.65
2019-01-26T19:55:54.700Z,6.55
2019-01-26T19:58:23.864Z,5.97
2019-01-26T20:00:52.970Z,6.08
2019-01-26T20:03:22.237Z,6.28
2019-01-26T20:05:51.401Z,6.87
2019-01-26T20:08:20.712Z,6.50
2019-01-26T20:10:49.877Z,7.28
2019-01-26T20:13:18.979Z,6.50
2019-01-26T20:15:48.179Z,7.65
2019-01-26T20:18:17.495Z,6.37
2019-01-26T20:20:51.973Z,6.50
2019-01-26T20:23:21.179Z,6.30
2019-01-26T20:25:50.423Z,6.85
2019-01-26T20:28:19.564Z,7.60
2019-01-26T20:30:49.774Z,11.70
2019-01-26T20:33:18.964Z,10.48
2019-01-26T20:35:48.494Z,6.45
2019-01-26T20:38:20.027Z,6.80
2019-01-26T20:40:49.337Z,6.78
2019-01-26T20:43:18.500Z,5.97
2019-01-26T20:45:48.029Z,6.28
2019-01-26T20:48:18.790Z,6.28
2019-01-26T20:50:48.062Z,6.25
2019-01-26T20:53:17.377Z,6.33
2019-01-26T20:55:46.824Z,7.35
2019-01-26T20:58:15.957Z,7.58
2019-01-26T21:00:45.221Z,6.92
2019-01-26T21:03:14.332Z,6.92
2019-01-26T21:05:43.514Z,8.45
2019-01-26T21:08:13.045Z,7.40
2019-01-26T21:10:42.183Z,6.95
2019-01-26T21:13:16.298Z,8.65
2019-01-26T21:15:42.217Z,8.23
2019-01-26T21:18:11.330Z,8.53
2019-01-26T21:20:40.521Z,7.28
2019-01-26T21:23:09.692Z,7.60
2019-01-26T21:25:38.894Z,8.65
2019-01-26T21:28:08.056Z,8.43
2019-01-26T21:30:37.236Z,9.60
2019-01-26T21:33:06.328Z,9.00
2019-01-26T21:35:35.584Z,8.38
2019-01-26T21:38:04.850Z,7.83
2019-01-26T21:40:34.046Z,6.65
2019-01-26T21:43:03.211Z,7.37
2019-01-26T21:45:32.551Z,7.22
2019-01-26T21:48:01.734Z,12.90
2019-01-26T21:50:31.428Z,10.48
2019-01-26T21:53:00.664Z,7.90
2019-01-26T21:55:29.974Z,6.30
2019-01-26T21:57:59.091Z,6.65
2019-01-26T22:00:33.421Z,5.95
2019-01-26T22:03:03.030Z,6.58
2019-01-26T22:05:32.280Z,5.30
2019-01-26T22:08:01.460Z,6.33
2019-01-26T22:10:30.712Z,5.47
2019-01-26T22:12:59.895Z,5.37
2019-01-26T22:15:29.201Z,5.05
2019-01-26T22:17:58.441Z,7.95
2019-01-26T22:20:28.573Z,4.50
2019-01-26T22:22:57.916Z,4.60
2019-01-26T22:25:27.148Z,4.90
2019-01-26T22:27:57.252Z,5.45
2019-01-26T22:30:31.245Z,5.33
2019-01-26T22:33:00.861Z,3.90
2019-01-26T22:35:30.230Z,5.15
2019-01-26T22:37:59.478Z,4.83
2019-01-26T22:40:30.855Z,3.98
2019-01-26T22:43:00.214Z,4.25
2019-01-26T22:45:29.657Z,3.80
2019-01-26T22:47:58.921Z,4.00
2019-01-26T22:50:28.216Z,7.65
2019-01-26T22:52:57.456Z,4.25
2019-01-26T22:55:26.949Z,4.03
2019-01-26T22:57:56.623Z,3.70
2019-01-26T23:00:56.644Z,4.17
2019-01-26T23:03:46.669Z,3.83
2019-01-26T23:06:39.948Z,3.65
2019-01-26T23:09:14.560Z,3.80
2019-01-26T23:12:24.715Z,4.33
2019-01-26T23:15:27.703Z,4.25
2019-01-26T23:18:22.849Z,4.08
2019-01-26T23:21:00.614Z,4.35
2019-01-26T23:24:22.144Z,4.47
2019-01-26T23:27:09.452Z,3.40
2019-01-26T23:30:04.752Z,3.67
2019-01-26T23:32:33.916Z,3.30
2019-01-26T23:35:03.178Z,3.85
2019-01-26T23:37:32.366Z,4.00
2019-01-26T23:40:01.534Z,3.65
2019-01-26T23:42:30.740Z,3.80
2019-01-26T23:44:59.831Z,3.50
2019-01-26T23:47:28.937Z,3.30
2019-01-26T23:49:58.032Z,16.37
2019-01-26T23:52:27.220Z,3.30
2019-01-26T23:54:56.384Z,4.08
2019-01-26T23:57:25.533Z,3.30
2019-01-26T23:59:54.650Z,4.00
